createdAt,value
2019-04-28T00:00:51.072Z,32.57
2019-04-28T00:03:22.989Z,31.00
2019-04-28T00:05:55.270Z,29.43
2019-04-28T00:08:25.550Z,32.20
2019-04-28T00:10:56.115Z,29.73
2019-04-28T00:13:26.458Z,31.80
2019-04-28T00:15:58.358Z,29.77
2019-04-28T00:18:28.735Z,28.97
2019-04-28T00:21:17.032Z,27.73
2019-04-28T00:24:04.919Z,33.73
2019-04-28T00:27:11.510Z,31.80
2019-04-28T00:29:45.947Z,32.87
2019-04-28T00:32:14.008Z,28.37
2019-04-28T00:34:44.643Z,31.33
2019-04-28T00:37:24.262Z,31.10
2019-04-28T00:39:54.909Z,31.37
2019-04-28T00:42:25.154Z,26.37
2019-04-28T00:44:56.004Z,25.93
2019-04-28T00:47:26.386Z,28.80
2019-04-28T00:49:57.056Z,29.17
2019-04-28T00:52:27.478Z,33.00
2019-04-28T00:54:57.758Z,27.73
2019-04-28T00:57:28.634Z,32.03
2019-04-28T01:00:02.590Z,29.53
2019-04-28T01:02:43.930Z,31.70
2019-04-28T01:05:14.916Z,29.17
2019-04-28T01:07:45.214Z,25.97
2019-04-28T01:10:16.242Z,26.73
2019-04-28T01:12:46.816Z,29.80
2019-04-28T01:15:51.774Z,28.40
2019-04-28T01:18:43.638Z,27.37
2019-04-28T01:21:14.436Z,28.00
2019-04-28T01:23:44.742Z,26.27
2019-04-28T01:26:15.135Z,26.27
2019-04-28T01:28:46.570Z,30.17
2019-04-28T01:31:24.838Z,31.50
2019-04-28T01:34:15.056Z,22.57
2019-04-28T01:36:45.312Z,26.67
2019-04-28T01:39:15.685Z,24.73
2019-04-28T01:41:46.049Z,23.00
2019-04-28T01:44:16.758Z,25.23
2019-04-28T01:46:47.017Z,21.77
2019-04-28T01:49:19.980Z,27.87
2019-04-28T01:52:00.870Z,30.23
2019-04-28T01:54:32.310Z,24.93
2019-04-28T01:57:02.921Z,27.37
2019-04-28T01:59:33.169Z,27.23
2019-04-28T02:02:04.583Z,26.30
2019-04-28T02:04:34.792Z,26.60
2019-04-28T02:07:05.379Z,27.70
2019-04-28T02:09:35.645Z,28.67
2019-04-28T02:12:06.523Z,24.00
2019-04-28T02:14:36.819Z,25.80
2019-04-28T02:17:07.447Z,25.93
2019-04-28T02:19:37.709Z,26.50
2019-04-28T02:22:22.739Z,25.00
2019-04-28T02:24:52.989Z,20.87
2019-04-28T02:27:23.737Z,25.07
2019-04-28T02:29:54.108Z,25.10
2019-04-28T02:32:24.559Z,24.53
2019-04-28T02:34:55.204Z,26.40
2019-04-28T02:37:25.481Z,24.13
2019-04-28T02:39:55.740Z,28.80
2019-04-28T02:42:26.245Z,23.33
2019-04-28T02:45:00.267Z,22.43
2019-04-28T02:47:31.559Z,24.60
2019-04-28T02:50:11.157Z,28.33
2019-04-28T02:53:07.052Z,22.40
2019-04-28T02:55:37.342Z,25.53
2019-04-28T02:58:07.674Z,25.43
2019-04-28T03:00:37.963Z,23.50
2019-04-28T03:03:10.793Z,25.23
2019-04-28T03:05:41.225Z,28.53
2019-04-28T03:08:13.719Z,25.20
2019-04-28T03:10:43.967Z,30.37
2019-04-28T03:13:14.285Z,25.90
2019-04-28T03:15:44.950Z,27.27
2019-04-28T03:18:15.344Z,24.00
2019-04-28T03:20:45.735Z,24.57
2019-04-28T03:23:16.828Z,27.10
2019-04-28T03:26:15.168Z,26.13
2019-04-28T03:29:14.700Z,21.87
2019-04-28T03:32:22.970Z,20.70
2019-04-28T03:34:44.964Z,23.60
2019-04-28T03:37:15.233Z,22.63
2019-04-28T03:39:46.026Z,23.63
2019-04-28T03:42:16.602Z,22.33
2019-04-28T03:44:46.802Z,20.20
2019-04-28T03:47:21.110Z,21.47
2019-04-28T03:49:51.211Z,25.03
2019-04-28T03:52:21.906Z,21.13
2019-04-28T03:54:52.257Z,20.77
2019-04-28T03:57:22.524Z,20.17
2019-04-28T03:59:52.823Z,22.07
2019-04-28T04:02:23.938Z,28.57
2019-04-28T04:04:54.728Z,25.60
2019-04-28T04:07:24.945Z,28.93
2019-04-28T04:10:02.342Z,23.10
2019-04-28T04:12:47.766Z,23.63
2019-04-28T04:15:48.633Z,24.63
2019-04-28T04:18:21.283Z,29.63
2019-04-28T04:20:51.870Z,20.10
2019-04-28T04:23:23.289Z,17.13
2019-04-28T04:25:53.921Z,17.13
2019-04-28T04:28:24.462Z,18.37
2019-04-28T04:30:54.733Z,18.40
2019-04-28T04:33:24.984Z,15.17
2019-04-28T04:35:55.167Z,19.03
2019-04-28T04:38:25.592Z,14.10
2019-04-28T04:40:55.861Z,17.13
2019-04-28T04:43:26.378Z,16.77
2019-04-28T04:46:14.649Z,13.23
2019-04-28T04:48:45.826Z,16.60
2019-04-28T04:51:16.366Z,17.23
2019-04-28T04:53:46.646Z,17.93
2019-04-28T04:56:16.949Z,16.20
2019-04-28T04:58:47.323Z,19.10
2019-04-28T05:01:40.765Z,16.97
2019-04-28T05:04:34.096Z,15.33
2019-04-28T05:07:04.522Z,15.27
2019-04-28T05:09:34.769Z,16.00
2019-04-28T05:12:05.040Z,16.27
2019-04-28T05:14:35.310Z,13.70
2019-04-28T05:17:05.638Z,17.30
2019-04-28T05:19:36.038Z,14.17
2019-04-28T05:22:06.997Z,11.97
2019-04-28T05:24:46.245Z,13.67
2019-04-28T05:27:21.428Z,14.47
2019-04-28T05:29:51.157Z,17.87
2019-04-28T05:32:21.201Z,17.67
2019-04-28T05:34:52.910Z,14.93
2019-04-28T05:37:23.358Z,13.13
2019-04-28T05:39:53.892Z,14.70
2019-04-28T05:42:24.145Z,12.43
2019-04-28T05:44:54.467Z,13.70
2019-04-28T05:47:25.142Z,12.80
2019-04-28T05:50:14.338Z,13.47
2019-04-28T05:53:03.577Z,12.40
2019-04-28T05:56:02.018Z,13.50
2019-04-28T05:58:43.751Z,11.93
2019-04-28T06:01:50.625Z,13.20
2019-04-28T06:04:24.212Z,11.67
2019-04-28T06:06:59.742Z,13.67
2019-04-28T06:09:35.099Z,12.73
2019-04-28T06:12:07.474Z,9.60
2019-04-28T06:14:37.770Z,11.23
2019-04-28T06:17:08.046Z,13.90
2019-04-28T06:19:40.170Z,11.67
2019-04-28T06:22:10.313Z,13.87
2019-04-28T06:24:41.523Z,9.20
2019-04-28T06:27:11.825Z,14.23
2019-04-28T06:29:42.285Z,14.37
2019-04-28T06:32:12.567Z,10.57
2019-04-28T06:34:42.843Z,11.60
2019-04-28T06:37:13.141Z,9.70
2019-04-28T06:39:43.392Z,11.17
2019-04-28T06:42:15.627Z,9.03
2019-04-28T06:44:45.916Z,7.23
2019-04-28T06:47:16.901Z,10.37
2019-04-28T06:49:48.435Z,11.13
2019-04-28T06:52:18.993Z,10.53
2019-04-28T06:54:49.395Z,7.17
2019-04-28T06:57:19.917Z,11.30
2019-04-28T06:59:50.151Z,7.50
2019-04-28T07:02:21.418Z,8.87
2019-04-28T07:05:01.120Z,9.17
2019-04-28T07:07:24.844Z,12.30
2019-04-28T07:09:55.063Z,10.40
2019-04-28T07:12:25.680Z,8.13
2019-04-28T07:14:55.973Z,15.37
2019-04-28T07:17:34.567Z,8.70
2019-04-28T07:20:36.521Z,8.93
2019-04-28T07:23:07.394Z,18.13
2019-04-28T07:25:37.920Z,11.23
2019-04-28T07:28:08.311Z,10.63
2019-04-28T07:30:40.588Z,9.13
2019-04-28T07:33:10.902Z,10.40
2019-04-28T07:35:41.242Z,16.23
2019-04-28T07:38:11.461Z,9.30
2019-04-28T07:40:41.691Z,14.90
2019-04-28T07:43:12.260Z,13.63
2019-04-28T07:45:42.532Z,7.90
2019-04-28T07:48:12.780Z,10.60
2019-04-28T07:50:43.030Z,13.27
2019-04-28T07:53:18.632Z,14.67
2019-04-28T07:55:49.209Z,12.30
2019-04-28T07:58:19.736Z,13.17
2019-04-28T08:00:49.986Z,12.23
2019-04-28T08:03:20.801Z,13.70
2019-04-28T08:05:51.146Z,10.97
2019-04-28T08:08:22.622Z,12.53
2019-04-28T08:10:53.050Z,13.50
2019-04-28T08:13:23.482Z,16.83
2019-04-28T08:15:54.264Z,11.63
2019-04-28T08:18:24.642Z,15.77
2019-04-28T08:20:54.905Z,12.57
2019-04-28T08:23:25.282Z,13.87
2019-04-28T08:25:55.754Z,13.17
2019-04-28T08:28:26.090Z,15.00
2019-04-28T08:30:56.744Z,16.40
2019-04-28T08:34:01.380Z,17.63
2019-04-28T08:36:21.242Z,17.63
2019-04-28T08:38:51.497Z,15.00
2019-04-28T08:41:22.470Z,21.03
2019-04-28T08:43:52.822Z,20.43
2019-04-28T08:46:29.007Z,21.37
2019-04-28T08:48:59.459Z,19.47
2019-04-28T08:51:29.815Z,19.83
2019-04-28T08:54:00.279Z,18.50
2019-04-28T08:56:30.965Z,18.83
2019-04-28T08:59:01.625Z,17.23
2019-04-28T09:01:32.258Z,17.40
2019-04-28T09:04:14.851Z,17.70
2019-04-28T09:06:35.228Z,13.40
2019-04-28T09:09:11.837Z,15.43
2019-04-28T09:11:42.184Z,20.60
2019-04-28T09:14:13.102Z,15.53
2019-04-28T09:16:43.655Z,13.07
2019-04-28T09:19:14.491Z,20.67
2019-04-28T09:21:44.987Z,19.57
2019-04-28T09:24:15.583Z,17.73
2019-04-28T09:26:45.879Z,14.00
2019-04-28T09:29:16.353Z,16.37
2019-04-28T09:31:47.143Z,16.53
2019-04-28T09:34:27.837Z,17.37
2019-04-28T09:36:50.652Z,23.07
2019-04-28T09:39:41.956Z,16.87
2019-04-28T09:42:30.144Z,13.90
2019-04-28T09:45:01.739Z,17.23
2019-04-28T09:47:33.622Z,13.50
2019-04-28T09:50:05.105Z,16.00
2019-04-28T09:52:35.881Z,17.80
2019-04-28T09:55:07.296Z,19.43
2019-04-28T09:57:38.175Z,14.07
2019-04-28T10:00:09.763Z,13.60
2019-04-28T10:02:41.071Z,13.07
2019-04-28T10:05:12.417Z,14.70
2019-04-28T10:07:43.109Z,15.90
2019-04-28T10:10:13.870Z,14.27
2019-04-28T10:12:44.731Z,17.70
2019-04-28T10:15:15.554Z,15.13
2019-04-28T10:17:51.033Z,15.13
2019-04-28T10:20:24.528Z,15.07
2019-04-28T10:22:55.200Z,11.10
2019-04-28T10:25:25.933Z,14.20
2019-04-28T10:27:56.566Z,15.53
2019-04-28T10:30:26.924Z,11.03
2019-04-28T10:32:58.773Z,12.63
2019-04-28T10:35:29.651Z,11.57
2019-04-28T10:38:00.099Z,13.13
2019-04-28T10:40:37.872Z,12.00
2019-04-28T10:43:08.192Z,14.27
2019-04-28T10:45:47.085Z,13.00
2019-04-28T10:48:17.564Z,15.73
2019-04-28T10:50:48.214Z,12.70
2019-04-28T10:53:18.702Z,13.83
2019-04-28T10:55:49.205Z,14.07
2019-04-28T10:58:19.459Z,14.20
2019-04-28T11:00:49.725Z,12.27
2019-04-28T11:03:20.626Z,10.87
2019-04-28T11:05:50.947Z,11.23
2019-04-28T11:08:28.376Z,12.13
2019-04-28T11:10:59.635Z,11.47
2019-04-28T11:13:30.324Z,12.83
2019-04-28T11:16:01.134Z,8.90
2019-04-28T11:18:31.432Z,8.97
2019-04-28T11:21:01.960Z,8.73
2019-04-28T11:23:33.171Z,10.20
2019-04-28T11:26:03.884Z,10.87
2019-04-28T11:28:34.754Z,11.23
2019-04-28T11:31:05.379Z,11.33
2019-04-28T11:33:44.742Z,10.53
2019-04-28T11:36:17.629Z,12.37
2019-04-28T11:38:49.107Z,11.07
2019-04-28T11:41:19.626Z,13.23
2019-04-28T11:43:49.966Z,12.37
2019-04-28T11:46:22.256Z,11.40
2019-04-28T11:48:52.510Z,11.67
2019-04-28T11:51:23.130Z,10.77
2019-04-28T11:53:53.414Z,13.60
2019-04-28T11:56:24.020Z,15.67
2019-04-28T11:58:54.892Z,12.40
2019-04-28T12:01:25.374Z,12.80
2019-04-28T12:03:59.667Z,16.10
2019-04-28T12:06:30.150Z,13.37
2019-04-28T12:09:16.582Z,15.30
2019-04-28T12:11:50.256Z,13.67
2019-04-28T12:14:54.890Z,11.67
2019-04-28T12:17:44.096Z,14.10
2019-04-28T12:20:23.278Z,14.10
2019-04-28T12:22:53.514Z,10.53
2019-04-28T12:25:24.020Z,9.93
2019-04-28T12:27:54.374Z,10.87
2019-04-28T12:30:24.622Z,12.10
2019-04-28T12:32:55.020Z,12.20
2019-04-28T12:35:25.423Z,15.53
2019-04-28T12:37:55.780Z,11.20
2019-04-28T12:40:26.140Z,11.07
2019-04-28T12:42:56.426Z,10.37
2019-04-28T12:45:34.929Z,11.67
2019-04-28T12:47:58.802Z,13.63
2019-04-28T12:50:34.075Z,9.80
2019-04-28T12:53:04.258Z,13.77
2019-04-28T12:55:35.904Z,13.27
2019-04-28T12:58:07.422Z,10.53
2019-04-28T13:00:57.063Z,10.60
2019-04-28T13:03:37.415Z,9.17
2019-04-28T13:06:09.437Z,12.20
2019-04-28T13:08:39.882Z,12.97
2019-04-28T13:11:11.391Z,11.67
2019-04-28T13:13:46.629Z,11.40
2019-04-28T13:16:14.290Z,10.30
2019-04-28T13:18:44.529Z,9.40
2019-04-28T13:21:14.839Z,11.37
2019-04-28T13:23:45.697Z,10.20
2019-04-28T13:26:16.135Z,10.40
2019-04-28T13:28:46.731Z,9.80
2019-04-28T13:31:17.030Z,10.57
2019-04-28T13:33:55.837Z,10.87
2019-04-28T13:36:19.478Z,7.70
2019-04-28T13:38:49.780Z,10.87
2019-04-28T13:41:20.039Z,8.13
2019-04-28T13:43:50.583Z,8.47
2019-04-28T13:46:20.855Z,9.07
2019-04-28T13:48:51.460Z,7.37
2019-04-28T13:51:21.858Z,12.80
2019-04-28T13:53:52.242Z,14.40
2019-04-28T13:56:22.563Z,11.67
2019-04-28T13:58:59.209Z,14.50
2019-04-28T14:01:41.508Z,14.47
2019-04-28T14:04:29.437Z,12.43
2019-04-28T14:07:04.864Z,10.63
2019-04-28T14:09:38.599Z,12.40
2019-04-28T14:12:09.509Z,11.90
2019-04-28T14:14:40.332Z,13.13
2019-04-28T14:17:10.699Z,10.97
2019-04-28T14:19:41.010Z,13.20
2019-04-28T14:22:11.351Z,15.97
2019-04-28T14:24:43.706Z,11.87
2019-04-28T14:27:13.998Z,12.53
2019-04-28T14:29:45.967Z,13.97
2019-04-28T14:32:16.471Z,12.67
2019-04-28T14:34:47.240Z,12.67
2019-04-28T14:37:17.888Z,11.97
2019-04-28T14:39:48.240Z,16.87
2019-04-28T14:42:18.529Z,13.43
2019-04-28T14:44:49.195Z,11.03
2019-04-28T14:47:21.577Z,9.83
2019-04-28T14:49:51.868Z,14.30
2019-04-28T14:52:22.186Z,13.77
2019-04-28T14:54:52.607Z,13.37
2019-04-28T14:57:22.917Z,10.70
2019-04-28T14:59:53.502Z,15.83
2019-04-28T15:02:33.648Z,13.93
2019-04-28T15:05:26.285Z,17.20
2019-04-28T15:08:21.411Z,19.63
2019-04-28T15:11:01.037Z,19.63
2019-04-28T15:13:31.345Z,17.67
2019-04-28T15:16:01.936Z,20.27
2019-04-28T15:18:32.261Z,22.33
2019-04-28T15:21:02.899Z,23.27
2019-04-28T15:23:33.462Z,21.70
2019-04-28T15:26:04.124Z,26.53
2019-04-28T15:28:34.495Z,26.80
2019-04-28T15:31:05.019Z,27.17
2019-04-28T15:33:35.246Z,24.67
2019-04-28T15:36:06.906Z,22.47
2019-04-28T15:38:37.298Z,23.13
2019-04-28T15:41:20.559Z,23.37
2019-04-28T15:43:39.565Z,21.83
2019-04-28T15:46:10.076Z,25.30
2019-04-28T15:48:41.462Z,21.27
2019-04-28T15:51:12.204Z,23.30
2019-04-28T15:53:44.830Z,22.47
2019-04-28T15:56:33.988Z,20.73
2019-04-28T15:59:05.192Z,20.47
2019-04-28T16:01:35.962Z,21.47
2019-04-28T16:04:06.792Z,21.17
2019-04-28T16:06:38.292Z,22.17
2019-04-28T16:09:12.768Z,17.83
2019-04-28T16:11:43.913Z,20.33
2019-04-28T16:14:14.455Z,16.97
2019-04-28T16:16:44.777Z,17.77
2019-04-28T16:19:15.090Z,16.63
2019-04-28T16:21:45.580Z,18.37
2019-04-28T16:24:15.980Z,17.23
2019-04-28T16:26:46.384Z,14.63
2019-04-28T16:29:16.727Z,18.57
2019-04-28T16:31:47.234Z,19.03
2019-04-28T16:34:18.044Z,19.40
2019-04-28T16:36:48.348Z,17.27
2019-04-28T16:39:18.710Z,20.83
2019-04-28T16:41:50.817Z,21.53
2019-04-28T16:44:22.132Z,21.97
2019-04-28T16:46:52.457Z,24.60
2019-04-28T16:49:22.741Z,21.93
2019-04-28T16:51:53.114Z,27.93
2019-04-28T16:54:23.426Z,22.33
2019-04-28T16:57:06.768Z,17.50
2019-04-28T17:00:02.390Z,22.30
2019-04-28T17:02:44.835Z,27.40
2019-04-28T17:05:15.438Z,23.10
2019-04-28T17:07:52.417Z,26.60
2019-04-28T17:10:18.906Z,27.57
2019-04-28T17:12:50.251Z,27.90
2019-04-28T17:15:20.580Z,22.83
2019-04-28T17:17:51.046Z,22.20
2019-04-28T17:20:21.328Z,20.20
2019-04-28T17:22:51.637Z,21.70
2019-04-28T17:25:22.085Z,22.70
2019-04-28T17:27:52.381Z,29.50
2019-04-28T17:30:24.546Z,25.83
2019-04-28T17:32:54.950Z,26.63
2019-04-28T17:35:25.334Z,31.23
2019-04-28T17:38:06.402Z,27.70
2019-04-28T17:40:28.339Z,33.43
2019-04-28T17:42:58.684Z,33.40
2019-04-28T17:45:28.970Z,33.43
2019-04-28T17:48:04.238Z,31.87
2019-04-28T17:50:35.983Z,27.03
2019-04-28T17:53:06.893Z,30.60
2019-04-28T17:55:37.505Z,25.10
2019-04-28T17:58:07.946Z,33.57
2019-04-28T18:01:03.340Z,33.87
2019-04-28T18:03:58.496Z,29.87
2019-04-28T18:06:29.240Z,27.43
2019-04-28T18:09:00.166Z,32.97
2019-04-28T18:11:31.837Z,34.57
2019-04-28T18:14:04.088Z,36.27
2019-04-28T18:17:05.702Z,36.37
2019-04-28T18:19:36.536Z,38.40
2019-04-28T18:22:06.958Z,38.43
2019-04-28T18:24:39.944Z,36.67
2019-04-28T18:27:09.712Z,34.07
2019-04-28T18:29:40.212Z,47.73
2019-04-28T18:32:48.207Z,47.53
2019-04-28T18:35:25.856Z,52.87
2019-04-28T18:38:33.989Z,48.20
2019-04-28T18:41:03.712Z,47.40
2019-04-28T18:43:53.411Z,40.60
2019-04-28T18:46:27.575Z,38.93
2019-04-28T18:48:58.007Z,61.43
2019-04-28T18:51:29.362Z,37.27
2019-04-28T18:53:59.818Z,38.77
2019-04-28T18:56:30.360Z,49.00
2019-04-28T18:59:00.696Z,45.13
2019-04-28T19:01:43.027Z,67.23
2019-04-28T19:04:13.402Z,61.77
2019-04-28T19:06:44.085Z,61.70
2019-04-28T19:09:40.513Z,62.97
2019-04-28T19:12:18.521Z,60.77
2019-04-28T19:14:54.662Z,49.80
2019-04-28T19:17:31.893Z,52.80
2019-04-28T19:20:02.617Z,59.33
2019-04-28T19:22:44.250Z,57.63
2019-04-28T19:25:14.934Z,55.13
2019-04-28T19:27:45.255Z,58.10
2019-04-28T19:30:15.784Z,63.17
2019-04-28T19:32:46.327Z,62.27
2019-04-28T19:35:17.218Z,73.03
2019-04-28T19:37:47.602Z,64.47
2019-04-28T19:40:17.966Z,70.37
2019-04-28T19:42:48.739Z,66.97
2019-04-28T19:45:22.880Z,57.17
2019-04-28T19:47:53.353Z,66.80
2019-04-28T19:50:23.918Z,73.27
2019-04-28T19:52:56.438Z,73.73
2019-04-28T19:55:31.373Z,67.47
2019-04-28T19:58:20.693Z,67.00
2019-04-28T20:00:58.031Z,66.53
2019-04-28T20:03:28.560Z,58.53
2019-04-28T20:06:00.871Z,55.87
2019-04-28T20:08:31.498Z,61.53
2019-04-28T20:11:02.282Z,53.70
2019-04-28T20:13:32.766Z,46.50
2019-04-28T20:16:03.290Z,48.07
2019-04-28T20:18:33.711Z,37.93
2019-04-28T20:21:04.977Z,40.33
2019-04-28T20:23:35.622Z,36.80
2019-04-28T20:26:10.292Z,44.97
2019-04-28T20:28:42.111Z,45.63
2019-04-28T20:31:13.376Z,44.00
2019-04-28T20:33:43.760Z,47.73
2019-04-28T20:36:20.097Z,52.63
2019-04-28T20:38:53.004Z,52.60
2019-04-28T20:41:25.468Z,48.80
2019-04-28T20:43:57.141Z,50.97
2019-04-28T20:46:27.645Z,56.43
2019-04-28T20:49:00.146Z,57.03
2019-04-28T20:51:30.494Z,64.13
2019-04-28T20:54:01.201Z,65.33
2019-04-28T20:56:31.623Z,68.07
2019-04-28T20:59:02.803Z,67.93
2019-04-28T21:01:33.456Z,61.40
2019-04-28T21:04:04.003Z,59.27
2019-04-28T21:06:34.515Z,50.30
2019-04-28T21:09:09.475Z,51.97
2019-04-28T21:11:40.621Z,47.20
2019-04-28T21:14:10.907Z,48.37
2019-04-28T21:16:41.879Z,39.47
2019-04-28T21:19:13.209Z,44.73
2019-04-28T21:21:43.596Z,38.97
2019-04-28T21:24:16.938Z,38.80
2019-04-28T21:26:47.303Z,35.53
2019-04-28T21:29:17.743Z,37.63
2019-04-28T21:31:48.031Z,37.90
2019-04-28T21:34:19.940Z,39.73
2019-04-28T21:36:50.280Z,45.17
2019-04-28T21:39:20.624Z,53.27
2019-04-28T21:41:54.807Z,62.63
2019-04-28T21:44:42.120Z,74.67
2019-04-28T21:47:19.233Z,88.87
2019-04-28T21:49:49.699Z,106.67
2019-04-28T21:52:20.147Z,101.23
2019-04-28T21:54:50.555Z,125.93
2019-04-28T21:57:20.883Z,114.17
2019-04-28T21:59:51.399Z,106.23
2019-04-28T22:02:21.758Z,118.03
2019-04-28T22:04:52.153Z,106.43
2019-04-28T22:07:22.449Z,92.83
2019-04-28T22:09:53.124Z,88.63
2019-04-28T22:12:23.615Z,75.20
2019-04-28T22:14:54.130Z,76.77
2019-04-28T22:17:24.581Z,67.57
2019-04-28T22:19:58.848Z,66.87
2019-04-28T22:22:31.743Z,71.10
2019-04-28T22:25:09.311Z,64.47
2019-04-28T22:27:41.895Z,60.60
2019-04-28T22:30:14.757Z,61.90
2019-04-28T22:32:48.009Z,59.90
2019-04-28T22:35:18.800Z,63.73
2019-04-28T22:37:50.300Z,61.90
2019-04-28T22:40:20.897Z,62.63
2019-04-28T22:42:51.217Z,55.93
2019-04-28T22:45:24.735Z,57.13
2019-04-28T22:47:55.090Z,58.83
2019-04-28T22:50:46.421Z,56.67
2019-04-28T22:53:19.136Z,56.10
2019-04-28T22:55:58.816Z,64.43
2019-04-28T22:58:53.884Z,64.93
2019-04-28T23:01:33.297Z,71.60
2019-04-28T23:04:13.328Z,75.67
2019-04-28T23:06:43.875Z,87.70
2019-04-28T23:09:17.320Z,104.87
2019-04-28T23:11:47.781Z,95.63
2019-04-28T23:14:18.891Z,101.40
2019-04-28T23:16:49.412Z,101.37
2019-04-28T23:19:21.390Z,95.47
2019-04-28T23:22:15.553Z,110.07
2019-04-28T23:24:48.868Z,106.10
2019-04-28T23:27:20.125Z,103.20
2019-04-28T23:29:51.590Z,108.77
2019-04-28T23:32:23.021Z,97.97
2019-04-28T23:34:56.723Z,92.13
2019-04-28T23:37:27.039Z,94.13
2019-04-28T23:39:57.318Z,89.87
2019-04-28T23:42:35.559Z,84.43
2019-04-28T23:45:07.166Z,82.37
2019-04-28T23:47:37.592Z,76.13
2019-04-28T23:50:10.247Z,76.10
2019-04-28T23:52:45.459Z,80.30
2019-04-28T23:55:16.308Z,75.80
2019-04-28T23:57:46.594Z,83.00
